sensor_id;sensor_type;location;lat;lon;timestamp;P1;durP1;ratioP1;P2;durP2;ratioP2
6344;SDS011;3205;42.666;23.264;2022-08-07T00:02:08;9.95;;;5.97;;
6344;SDS011;3205;42.666;23.264;2022-08-07T00:04:36;6.57;;;5.97;;
6344;SDS011;3205;42.666;23.264;2022-08-07T00:07:02;8.98;;;6.38;;
6344;SDS011;3205;42.666;23.264;2022-08-07T00:09:29;12.38;;;6.47;;
6344;SDS011;3205;42.666;23.264;2022-08-07T00:11:55;6.13;;;5.57;;
6344;SDS011;3205;42.666;23.264;2022-08-07T00:14:23;5.97;;;5.47;;
6344;SDS011;3205;42.666;23.264;2022-08-07T00:16:50;7.63;;;5.40;;
6344;SDS011;3205;42.666;23.264;2022-08-07T00:19:17;7.78;;;6.03;;
6344;SDS011;3205;42.666;23.264;2022-08-07T00:21:44;6.45;;;5.93;;
6344;SDS011;3205;42.666;23.264;2022-08-07T00:24:12;8.75;;;5.85;;
6344;SDS011;3205;42.666;23.264;2022-08-07T00:26:38;5.93;;;5.32;;
6344;SDS011;3205;42.666;23.264;2022-08-07T00:29:05;8.60;;;5.70;;
6344;SDS011;3205;42.666;23.264;2022-08-07T00:31:34;5.88;;;5.30;;
6344;SDS011;3205;42.666;23.264;2022-08-07T00:34:01;6.25;;;5.65;;
6344;SDS011;3205;42.666;23.264;2022-08-07T00:36:27;9.13;;;5.30;;
6344;SDS011;3205;42.666;23.264;2022-08-07T00:38:54;7.35;;;5.53;;
6344;SDS011;3205;42.666;23.264;2022-08-07T00:41:24;5.78;;;5.20;;
6344;SDS011;3205;42.666;23.264;2022-08-07T00:43:50;7.22;;;5.72;;
6344;SDS011;3205;42.666;23.264;2022-08-07T00:46:17;6.70;;;5.43;;
6344;SDS011;3205;42.666;23.264;2022-08-07T00:48:45;6.10;;;5.25;;
6344;SDS011;3205;42.666;23.264;2022-08-07T00:51:11;7.22;;;5.63;;
6344;SDS011;3205;42.666;23.264;2022-08-07T00:53:40;7.70;;;6.15;;
6344;SDS011;3205;42.666;23.264;2022-08-07T00:56:07;6.78;;;5.70;;
6344;SDS011;3205;42.666;23.264;2022-08-07T00:58:39;9.38;;;5.97;;
6344;SDS011;3205;42.666;23.264;2022-08-07T01:01:07;7.40;;;5.57;;
6344;SDS011;3205;42.666;23.264;2022-08-07T01:03:34;10.73;;;5.88;;
6344;SDS011;3205;42.666;23.264;2022-08-07T01:06:02;6.78;;;5.63;;
6344;SDS011;3205;42.666;23.264;2022-08-07T01:08:28;10.85;;;5.70;;
6344;SDS011;3205;42.666;23.264;2022-08-07T01:10:55;7.32;;;5.30;;
6344;SDS011;3205;42.666;23.264;2022-08-07T01:13:22;6.80;;;5.63;;
6344;SDS011;3205;42.666;23.264;2022-08-07T01:15:49;6.10;;;5.50;;
6344;SDS011;3205;42.666;23.264;2022-08-07T01:18:15;6.88;;;5.93;;
6344;SDS011;3205;42.666;23.264;2022-08-07T01:20:43;9.32;;;5.72;;
6344;SDS011;3205;42.666;23.264;2022-08-07T01:23:11;10.32;;;5.40;;
6344;SDS011;3205;42.666;23.264;2022-08-07T01:25:40;6.90;;;5.32;;
6344;SDS011;3205;42.666;23.264;2022-08-07T01:28:07;6.07;;;5.57;;
6344;SDS011;3205;42.666;23.264;2022-08-07T01:30:33;7.15;;;6.45;;
6344;SDS011;3205;42.666;23.264;2022-08-07T01:33:01;6.50;;;5.20;;
6344;SDS011;3205;42.666;23.264;2022-08-07T01:35:28;6.53;;;6.03;;
6344;SDS011;3205;42.666;23.264;2022-08-07T01:37:55;7.82;;;6.05;;
6344;SDS011;3205;42.666;23.264;2022-08-07T01:40:23;6.80;;;6.15;;
6344;SDS011;3205;42.666;23.264;2022-08-07T01:42:49;5.82;;;5.32;;
6344;SDS011;3205;42.666;23.264;2022-08-07T01:45:16;6.65;;;6.05;;
6344;SDS011;3205;42.666;23.264;2022-08-07T01:47:46;6.25;;;5.65;;
6344;SDS011;3205;42.666;23.264;2022-08-07T01:50:13;6.60;;;6.00;;
6344;SDS011;3205;42.666;23.264;2022-08-07T01:52:40;9.88;;;6.28;;
6344;SDS011;3205;42.666;23.264;2022-08-07T01:55:10;9.05;;;6.00;;
6344;SDS011;3205;42.666;23.264;2022-08-07T01:57:39;6.60;;;6.00;;
6344;SDS011;3205;42.666;23.264;2022-08-07T02:00:08;6.97;;;5.63;;
6344;SDS011;3205;42.666;23.264;2022-08-07T02:02:37;8.10;;;6.05;;
6344;SDS011;3205;42.666;23.264;2022-08-07T02:05:06;7.13;;;5.93;;
6344;SDS011;3205;42.666;23.264;2022-08-07T02:07:35;6.32;;;5.72;;
6344;SDS011;3205;42.666;23.264;2022-08-07T02:10:03;9.57;;;6.45;;
6344;SDS011;3205;42.666;23.264;2022-08-07T02:12:32;7.22;;;6.53;;
6344;SDS011;3205;42.666;23.264;2022-08-07T02:15:02;7.20;;;6.50;;
6344;SDS011;3205;42.666;23.264;2022-08-07T02:17:29;13.93;;;7.45;;
6344;SDS011;3205;42.666;23.264;2022-08-07T02:19:56;10.30;;;7.95;;
6344;SDS011;3205;42.666;23.264;2022-08-07T02:22:23;14.15;;;8.52;;
6344;SDS011;3205;42.666;23.264;2022-08-07T02:24:51;8.27;;;7.47;;
6344;SDS011;3205;42.666;23.264;2022-08-07T02:27:19;11.00;;;7.32;;
6344;SDS011;3205;42.666;23.264;2022-08-07T02:29:49;9.10;;;7.90;;
6344;SDS011;3205;42.666;23.264;2022-08-07T02:32:17;11.63;;;7.03;;
6344;SDS011;3205;42.666;23.264;2022-08-07T02:34:44;8.95;;;7.47;;
6344;SDS011;3205;42.666;23.264;2022-08-07T02:37:12;9.32;;;7.65;;
6344;SDS011;3205;42.666;23.264;2022-08-07T02:39:39;8.07;;;6.82;;
6344;SDS011;3205;42.666;23.264;2022-08-07T02:42:08;8.38;;;7.57;;
6344;SDS011;3205;42.666;23.264;2022-08-07T02:44:35;8.60;;;7.45;;
6344;SDS011;3205;42.666;23.264;2022-08-07T02:47:02;8.55;;;6.50;;
6344;SDS011;3205;42.666;23.264;2022-08-07T02:49:30;6.05;;;5.53;;
6344;SDS011;3205;42.666;23.264;2022-08-07T02:51:57;7.25;;;6.22;;
6344;SDS011;3205;42.666;23.264;2022-08-07T02:54:24;8.48;;;6.20;;
6344;SDS011;3205;42.666;23.264;2022-08-07T02:56:53;7.32;;;6.63;;
6344;SDS011;3205;42.666;23.264;2022-08-07T02:59:22;7.53;;;5.72;;
6344;SDS011;3205;42.666;23.264;2022-08-07T03:01:49;5.90;;;5.40;;
6344;SDS011;3205;42.666;23.264;2022-08-07T03:04:16;6.35;;;5.80;;
6344;SDS011;3205;42.666;23.264;2022-08-07T03:06:46;6.72;;;6.18;;
6344;SDS011;3205;42.666;23.264;2022-08-07T03:09:14;7.15;;;6.10;;
6344;SDS011;3205;42.666;23.264;2022-08-07T03:11:42;6.00;;;5.55;;
6344;SDS011;3205;42.666;23.264;2022-08-07T03:14:09;7.10;;;5.82;;
6344;SDS011;3205;42.666;23.264;2022-08-07T03:16:36;6.18;;;5.68;;
6344;SDS011;3205;42.666;23.264;2022-08-07T03:19:03;7.07;;;6.30;;
6344;SDS011;3205;42.666;23.264;2022-08-07T03:21:29;7.00;;;6.40;;
6344;SDS011;3205;42.666;23.264;2022-08-07T03:23:57;7.18;;;6.47;;
6344;SDS011;3205;42.666;23.264;2022-08-07T03:26:26;13.20;;;6.82;;
6344;SDS011;3205;42.666;23.264;2022-08-07T03:28:54;8.32;;;7.07;;
6344;SDS011;3205;42.666;23.264;2022-08-07T03:31:22;7.78;;;7.10;;
6344;SDS011;3205;42.666;23.264;2022-08-07T03:33:50;7.60;;;6.93;;
6344;SDS011;3205;42.666;23.264;2022-08-07T03:36:18;7.93;;;7.00;;
6344;SDS011;3205;42.666;23.264;2022-08-07T03:38:45;7.55;;;6.85;;
6344;SDS011;3205;42.666;23.264;2022-08-07T03:41:14;7.45;;;6.85;;
6344;SDS011;3205;42.666;23.264;2022-08-07T03:43:41;7.85;;;7.15;;
6344;SDS011;3205;42.666;23.264;2022-08-07T03:46:10;10.65;;;7.80;;
6344;SDS011;3205;42.666;23.264;2022-08-07T03:48:37;9.82;;;8.93;;
6344;SDS011;3205;42.666;23.264;2022-08-07T03:51:04;10.63;;;9.63;;
6344;SDS011;3205;42.666;23.264;2022-08-07T03:53:33;13.68;;;9.30;;
6344;SDS011;3205;42.666;23.264;2022-08-07T03:56:00;9.40;;;8.60;;
6344;SDS011;3205;42.666;23.264;2022-08-07T03:58:29;12.13;;;9.00;;
6344;SDS011;3205;42.666;23.264;2022-08-07T04:00:56;9.63;;;8.68;;
6344;SDS011;3205;42.666;23.264;2022-08-07T04:03:23;12.88;;;8.70;;
6344;SDS011;3205;42.666;23.264;2022-08-07T04:05:49;12.02;;;8.13;;
6344;SDS011;3205;42.666;23.264;2022-08-07T04:08:16;10.00;;;7.93;;
6344;SDS011;3205;42.666;23.264;2022-08-07T04:10:43;8.07;;;7.35;;
6344;SDS011;3205;42.666;23.264;2022-08-07T04:13:12;9.18;;;8.18;;
6344;SDS011;3205;42.666;23.264;2022-08-07T04:15:40;8.55;;;7.45;;
6344;SDS011;3205;42.666;23.264;2022-08-07T04:18:07;11.77;;;7.63;;
6344;SDS011;3205;42.666;23.264;2022-08-07T04:20:33;8.95;;;6.97;;
6344;SDS011;3205;42.666;23.264;2022-08-07T04:23:00;10.60;;;7.63;;
6344;SDS011;3205;42.666;23.264;2022-08-07T04:25:27;14.02;;;7.47;;
6344;SDS011;3205;42.666;23.264;2022-08-07T04:27:54;8.95;;;7.28;;
6344;SDS011;3205;42.666;23.264;2022-08-07T04:30:21;8.25;;;7.45;;
6344;SDS011;3205;42.666;23.264;2022-08-07T04:32:49;9.05;;;8.02;;
6344;SDS011;3205;42.666;23.264;2022-08-07T04:35:16;11.68;;;6.90;;
6344;SDS011;3205;42.666;23.264;2022-08-07T04:37:43;7.25;;;6.47;;
6344;SDS011;3205;42.666;23.264;2022-08-07T04:40:10;11.50;;;7.47;;
6344;SDS011;3205;42.666;23.264;2022-08-07T04:42:36;7.70;;;6.60;;
6344;SDS011;3205;42.666;23.264;2022-08-07T04:45:03;7.75;;;7.05;;
6344;SDS011;3205;42.666;23.264;2022-08-07T04:47:33;8.10;;;7.40;;
6344;SDS011;3205;42.666;23.264;2022-08-07T04:50:04;7.82;;;6.82;;
6344;SDS011;3205;42.666;23.264;2022-08-07T04:52:35;8.38;;;7.43;;
6344;SDS011;3205;42.666;23.264;2022-08-07T04:55:05;8.55;;;7.75;;
6344;SDS011;3205;42.666;23.264;2022-08-07T04:57:34;10.40;;;7.60;;
6344;SDS011;3205;42.666;23.264;2022-08-07T05:00:06;8.13;;;7.32;;
6344;SDS011;3205;42.666;23.264;2022-08-07T05:02:42;9.60;;;6.88;;
6344;SDS011;3205;42.666;23.264;2022-08-07T05:05:15;10.38;;;7.40;;
6344;SDS011;3205;42.666;23.264;2022-08-07T05:07:43;6.85;;;6.25;;
6344;SDS011;3205;42.666;23.264;2022-08-07T05:10:15;9.25;;;6.82;;
6344;SDS011;3205;42.666;23.264;2022-08-07T05:12:46;6.85;;;6.00;;
6344;SDS011;3205;42.666;23.264;2022-08-07T05:15:15;6.25;;;5.07;;
6344;SDS011;3205;42.666;23.264;2022-08-07T05:17:44;6.82;;;6.15;;
6344;SDS011;3205;42.666;23.264;2022-08-07T05:20:13;7.28;;;5.32;;
6344;SDS011;3205;42.666;23.264;2022-08-07T05:22:41;5.80;;;5.38;;
6344;SDS011;3205;42.666;23.264;2022-08-07T05:25:09;6.45;;;5.72;;
6344;SDS011;3205;42.666;23.264;2022-08-07T05:27:37;5.95;;;5.35;;
6344;SDS011;3205;42.666;23.264;2022-08-07T05:30:04;6.43;;;5.60;;
6344;SDS011;3205;42.666;23.264;2022-08-07T05:32:31;5.80;;;5.22;;
6344;SDS011;3205;42.666;23.264;2022-08-07T05:34:59;6.18;;;5.57;;
6344;SDS011;3205;42.666;23.264;2022-08-07T05:37:28;7.20;;;5.90;;
6344;SDS011;3205;42.666;23.264;2022-08-07T05:39:55;6.45;;;5.50;;
6344;SDS011;3205;42.666;23.264;2022-08-07T05:42:22;5.55;;;5.07;;
6344;SDS011;3205;42.666;23.264;2022-08-07T05:44:49;7.70;;;5.35;;
6344;SDS011;3205;42.666;23.264;2022-08-07T05:47:17;5.82;;;5.43;;
6344;SDS011;3205;42.666;23.264;2022-08-07T05:49:46;8.38;;;5.90;;
6344;SDS011;3205;42.666;23.264;2022-08-07T05:52:13;8.48;;;5.47;;
6344;SDS011;3205;42.666;23.264;2022-08-07T05:54:41;5.90;;;5.30;;
6344;SDS011;3205;42.666;23.264;2022-08-07T05:57:08;11.40;;;5.38;;
6344;SDS011;3205;42.666;23.264;2022-08-07T05:59:36;6.85;;;6.20;;
6344;SDS011;3205;42.666;23.264;2022-08-07T06:02:03;7.38;;;5.80;;
6344;SDS011;3205;42.666;23.264;2022-08-07T06:04:30;6.43;;;5.60;;
6344;SDS011;3205;42.666;23.264;2022-08-07T06:06:59;6.15;;;5.40;;
6344;SDS011;3205;42.666;23.264;2022-08-07T06:09:30;8.88;;;5.88;;
6344;SDS011;3205;42.666;23.264;2022-08-07T06:11:58;6.65;;;5.97;;
6344;SDS011;3205;42.666;23.264;2022-08-07T06:14:24;6.75;;;5.88;;
6344;SDS011;3205;42.666;23.264;2022-08-07T06:16:51;5.95;;;5.53;;
6344;SDS011;3205;42.666;23.264;2022-08-07T06:19:18;6.40;;;5.90;;
6344;SDS011;3205;42.666;23.264;2022-08-07T06:21:47;6.82;;;5.47;;
6344;SDS011;3205;42.666;23.264;2022-08-07T06:24:16;6.72;;;5.68;;
6344;SDS011;3205;42.666;23.264;2022-08-07T06:26:43;5.88;;;5.32;;
6344;SDS011;3205;42.666;23.264;2022-08-07T06:29:11;6.22;;;5.63;;
6344;SDS011;3205;42.666;23.264;2022-08-07T06:31:37;8.45;;;5.63;;
6344;SDS011;3205;42.666;23.264;2022-08-07T06:34:04;5.95;;;5.35;;
6344;SDS011;3205;42.666;23.264;2022-08-07T06:36:31;5.97;;;5.40;;
6344;SDS011;3205;42.666;23.264;2022-08-07T06:38:57;5.63;;;4.78;;
6344;SDS011;3205;42.666;23.264;2022-08-07T06:41:25;8.18;;;7.45;;
6344;SDS011;3205;42.666;23.264;2022-08-07T06:43:53;6.40;;;5.88;;
6344;SDS011;3205;42.666;23.264;2022-08-07T06:46:22;6.15;;;5.47;;
6344;SDS011;3205;42.666;23.264;2022-08-07T06:48:48;6.07;;;5.68;;
6344;SDS011;3205;42.666;23.264;2022-08-07T06:51:19;6.72;;;6.07;;
6344;SDS011;3205;42.666;23.264;2022-08-07T06:53:46;6.82;;;6.20;;
6344;SDS011;3205;42.666;23.264;2022-08-07T06:56:15;9.05;;;5.93;;
6344;SDS011;3205;42.666;23.264;2022-08-07T06:59:02;8.32;;;5.93;;
6344;SDS011;3205;42.666;23.264;2022-08-07T07:01:31;6.15;;;5.70;;
6344;SDS011;3205;42.666;23.264;2022-08-07T07:03:58;6.20;;;5.70;;
6344;SDS011;3205;42.666;23.264;2022-08-07T07:06:25;6.30;;;5.72;;
6344;SDS011;3205;42.666;23.264;2022-08-07T07:08:51;6.57;;;5.70;;
6344;SDS011;3205;42.666;23.264;2022-08-07T07:11:18;7.00;;;6.40;;
6344;SDS011;3205;42.666;23.264;2022-08-07T07:13:46;7.18;;;5.55;;
6344;SDS011;3205;42.666;23.264;2022-08-07T07:16:15;6.72;;;6.13;;
6344;SDS011;3205;42.666;23.264;2022-08-07T07:18:44;6.40;;;5.90;;
6344;SDS011;3205;42.666;23.264;2022-08-07T07:21:15;6.80;;;5.63;;
6344;SDS011;3205;42.666;23.264;2022-08-07T07:23:43;5.93;;;5.53;;
6344;SDS011;3205;42.666;23.264;2022-08-07T07:26:13;6.72;;;6.18;;
6344;SDS011;3205;42.666;23.264;2022-08-07T07:28:42;6.47;;;5.88;;
6344;SDS011;3205;42.666;23.264;2022-08-07T07:31:13;7.00;;;5.90;;
6344;SDS011;3205;42.666;23.264;2022-08-07T07:33:40;7.05;;;6.45;;
6344;SDS011;3205;42.666;23.264;2022-08-07T07:36:12;6.88;;;6.30;;
6344;SDS011;3205;42.666;23.264;2022-08-07T07:38:39;6.40;;;5.82;;
6344;SDS011;3205;42.666;23.264;2022-08-07T07:41:07;5.63;;;5.22;;
6344;SDS011;3205;42.666;23.264;2022-08-07T07:43:35;13.85;;;5.80;;
6344;SDS011;3205;42.666;23.264;2022-08-07T07:46:06;6.07;;;5.57;;
6344;SDS011;3205;42.666;23.264;2022-08-07T07:48:32;6.50;;;6.00;;
6344;SDS011;3205;42.666;23.264;2022-08-07T07:50:59;6.05;;;5.45;;
6344;SDS011;3205;42.666;23.264;2022-08-07T07:53:28;6.82;;;6.20;;
6344;SDS011;3205;42.666;23.264;2022-08-07T07:55:56;7.13;;;6.40;;
6344;SDS011;3205;42.666;23.264;2022-08-07T07:58:25;8.50;;;6.53;;
6344;SDS011;3205;42.666;23.264;2022-08-07T08:00:54;6.90;;;6.40;;
6344;SDS011;3205;42.666;23.264;2022-08-07T08:03:21;6.60;;;5.97;;
6344;SDS011;3205;42.666;23.264;2022-08-07T08:05:49;9.07;;;8.18;;
6344;SDS011;3205;42.666;23.264;2022-08-07T08:08:16;9.23;;;8.45;;
6344;SDS011;3205;42.666;23.264;2022-08-07T08:10:45;9.05;;;8.27;;
6344;SDS011;3205;42.666;23.264;2022-08-07T08:13:12;10.50;;;9.50;;
6344;SDS011;3205;42.666;23.264;2022-08-07T08:15:39;11.50;;;10.50;;
6344;SDS011;3205;42.666;23.264;2022-08-07T08:18:08;11.25;;;10.32;;
6344;SDS011;3205;42.666;23.264;2022-08-07T08:20:35;12.70;;;11.60;;
6344;SDS011;3205;42.666;23.264;2022-08-07T08:23:03;13.15;;;10.57;;
6344;SDS011;3205;42.666;23.264;2022-08-07T08:25:50;11.15;;;10.15;;
6344;SDS011;3205;42.666;23.264;2022-08-07T08:28:35;11.73;;;9.77;;
6344;SDS011;3205;42.666;23.264;2022-08-07T08:31:03;9.40;;;8.50;;
6344;SDS011;3205;42.666;23.264;2022-08-07T08:33:30;9.45;;;8.48;;
6344;SDS011;3205;42.666;23.264;2022-08-07T08:35:58;8.75;;;8.05;;
6344;SDS011;3205;42.666;23.264;2022-08-07T08:38:26;7.75;;;7.13;;
6344;SDS011;3205;42.666;23.264;2022-08-07T08:40:56;8.13;;;7.53;;
6344;SDS011;3205;42.666;23.264;2022-08-07T08:43:27;7.22;;;6.63;;
6344;SDS011;3205;42.666;23.264;2022-08-07T08:46:00;7.18;;;6.57;;
6344;SDS011;3205;42.666;23.264;2022-08-07T08:48:31;9.80;;;7.22;;
6344;SDS011;3205;42.666;23.264;2022-08-07T08:51:04;8.30;;;7.55;;
6344;SDS011;3205;42.666;23.264;2022-08-07T08:53:31;8.65;;;7.53;;
6344;SDS011;3205;42.666;23.264;2022-08-07T08:56:05;7.63;;;7.07;;
6344;SDS011;3205;42.666;23.264;2022-08-07T08:58:34;8.80;;;7.07;;
6344;SDS011;3205;42.666;23.264;2022-08-07T09:01:06;8.05;;;7.20;;
6344;SDS011;3205;42.666;23.264;2022-08-07T09:03:37;8.13;;;7.40;;
6344;SDS011;3205;42.666;23.264;2022-08-07T09:06:10;7.93;;;7.22;;
6344;SDS011;3205;42.666;23.264;2022-08-07T09:08:46;8.07;;;7.22;;
6344;SDS011;3205;42.666;23.264;2022-08-07T09:11:18;7.07;;;6.47;;
6344;SDS011;3205;42.666;23.264;2022-08-07T09:13:59;7.70;;;6.75;;
6344;SDS011;3205;42.666;23.264;2022-08-07T09:16:30;8.63;;;7.28;;
6344;SDS011;3205;42.666;23.264;2022-08-07T09:19:15;6.95;;;6.35;;
6344;SDS011;3205;42.666;23.264;2022-08-07T09:21:46;7.00;;;6.47;;
6344;SDS011;3205;42.666;23.264;2022-08-07T09:24:16;7.22;;;6.63;;
6344;SDS011;3205;42.666;23.264;2022-08-07T09:26:50;6.78;;;6.18;;
6344;SDS011;3205;42.666;23.264;2022-08-07T09:29:20;7.88;;;6.82;;
6344;SDS011;3205;42.666;23.264;2022-08-07T09:31:53;10.07;;;6.70;;
6344;SDS011;3205;42.666;23.264;2022-08-07T09:34:22;6.90;;;6.15;;
6344;SDS011;3205;42.666;23.264;2022-08-07T09:36:52;6.63;;;6.03;;
6344;SDS011;3205;42.666;23.264;2022-08-07T09:39:26;6.28;;;5.72;;
6344;SDS011;3205;42.666;23.264;2022-08-07T09:41:59;7.10;;;6.43;;
6344;SDS011;3205;42.666;23.264;2022-08-07T09:44:29;7.05;;;5.70;;
6344;SDS011;3205;42.666;23.264;2022-08-07T09:47:02;6.40;;;5.88;;
6344;SDS011;3205;42.666;23.264;2022-08-07T09:49:39;6.50;;;5.63;;
6344;SDS011;3205;42.666;23.264;2022-08-07T09:52:12;7.78;;;5.90;;
6344;SDS011;3205;42.666;23.264;2022-08-07T09:54:42;9.85;;;5.65;;
6344;SDS011;3205;42.666;23.264;2022-08-07T09:57:22;6.95;;;6.28;;
6344;SDS011;3205;42.666;23.264;2022-08-07T10:00:04;7.68;;;6.43;;
6344;SDS011;3205;42.666;23.264;2022-08-07T10:02:50;6.05;;;5.45;;
6344;SDS011;3205;42.666;23.264;2022-08-07T10:05:25;6.20;;;5.70;;
6344;SDS011;3205;42.666;23.264;2022-08-07T10:07:58;6.28;;;5.75;;
6344;SDS011;3205;42.666;23.264;2022-08-07T10:10:39;6.63;;;5.78;;
6344;SDS011;3205;42.666;23.264;2022-08-07T10:13:13;6.15;;;5.55;;
6344;SDS011;3205;42.666;23.264;2022-08-07T10:15:48;9.40;;;6.30;;
6344;SDS011;3205;42.666;23.264;2022-08-07T10:18:21;5.75;;;5.25;;
6344;SDS011;3205;42.666;23.264;2022-08-07T10:20:54;5.63;;;5.15;;
6344;SDS011;3205;42.666;23.264;2022-08-07T10:23:35;6.47;;;5.88;;
6344;SDS011;3205;42.666;23.264;2022-08-07T10:26:12;7.32;;;6.15;;
6344;SDS011;3205;42.666;23.264;2022-08-07T10:28:57;5.90;;;5.40;;
6344;SDS011;3205;42.666;23.264;2022-08-07T10:31:45;6.90;;;6.30;;
6344;SDS011;3205;42.666;23.264;2022-08-07T10:34:19;8.25;;;6.55;;
6344;SDS011;3205;42.666;23.264;2022-08-07T10:37:03;7.65;;;6.40;;
6344;SDS011;3205;42.666;23.264;2022-08-07T10:39:36;5.65;;;5.25;;
6344;SDS011;3205;42.666;23.264;2022-08-07T10:42:10;8.65;;;6.18;;
6344;SDS011;3205;42.666;23.264;2022-08-07T10:44:46;7.03;;;6.07;;
6344;SDS011;3205;42.666;23.264;2022-08-07T10:47:17;6.43;;;5.85;;
6344;SDS011;3205;42.666;23.264;2022-08-07T10:49:46;6.78;;;6.18;;
6344;SDS011;3205;42.666;23.264;2022-08-07T10:52:17;6.07;;;5.68;;
6344;SDS011;3205;42.666;23.264;2022-08-07T10:54:45;6.80;;;6.20;;
6344;SDS011;3205;42.666;23.264;2022-08-07T10:57:18;6.50;;;6.00;;
6344;SDS011;3205;42.666;23.264;2022-08-07T10:59:52;6.93;;;6.18;;
6344;SDS011;3205;42.666;23.264;2022-08-07T11:02:27;7.38;;;6.65;;
6344;SDS011;3205;42.666;23.264;2022-08-07T11:04:58;7.15;;;6.43;;
6344;SDS011;3205;42.666;23.264;2022-08-07T11:07:33;7.45;;;6.65;;
6344;SDS011;3205;42.666;23.264;2022-08-07T11:10:02;6.82;;;6.20;;
6344;SDS011;3205;42.666;23.264;2022-08-07T11:12:32;7.70;;;6.25;;
6344;SDS011;3205;42.666;23.264;2022-08-07T11:15:03;6.57;;;6.07;;
6344;SDS011;3205;42.666;23.264;2022-08-07T11:17:33;8.27;;;5.97;;
6344;SDS011;3205;42.666;23.264;2022-08-07T11:20:05;6.43;;;5.93;;
6344;SDS011;3205;42.666;23.264;2022-08-07T11:22:33;7.20;;;6.50;;
6344;SDS011;3205;42.666;23.264;2022-08-07T11:25:03;6.68;;;6.07;;
6344;SDS011;3205;42.666;23.264;2022-08-07T11:27:36;6.53;;;5.93;;
6344;SDS011;3205;42.666;23.264;2022-08-07T11:30:09;6.28;;;5.78;;
6344;SDS011;3205;42.666;23.264;2022-08-07T11:32:38;7.50;;;6.25;;
6344;SDS011;3205;42.666;23.264;2022-08-07T11:35:06;6.78;;;6.18;;
6344;SDS011;3205;42.666;23.264;2022-08-07T11:37:42;6.90;;;6.15;;
6344;SDS011;3205;42.666;23.264;2022-08-07T11:40:17;7.85;;;6.20;;
6344;SDS011;3205;42.666;23.264;2022-08-07T11:42:50;8.80;;;6.63;;
6344;SDS011;3205;42.666;23.264;2022-08-07T11:45:23;6.63;;;6.03;;
6344;SDS011;3205;42.666;23.264;2022-08-07T11:48:01;8.38;;;6.53;;
6344;SDS011;3205;42.666;23.264;2022-08-07T11:50:34;9.40;;;6.22;;
6344;SDS011;3205;42.666;23.264;2022-08-07T11:53:06;9.48;;;6.82;;
6344;SDS011;3205;42.666;23.264;2022-08-07T11:55:42;8.30;;;6.05;;
6344;SDS011;3205;42.666;23.264;2022-08-07T11:58:13;8.27;;;6.00;;
6344;SDS011;3205;42.666;23.264;2022-08-07T12:00:50;7.05;;;6.45;;
6344;SDS011;3205;42.666;23.264;2022-08-07T12:03:27;8.23;;;7.53;;
6344;SDS011;3205;42.666;23.264;2022-08-07T12:05:57;7.60;;;7.00;;
6344;SDS011;3205;42.666;23.264;2022-08-07T12:08:29;7.72;;;6.93;;
6344;SDS011;3205;42.666;23.264;2022-08-07T12:10:58;9.05;;;7.30;;
6344;SDS011;3205;42.666;23.264;2022-08-07T12:13:27;7.05;;;6.38;;
6344;SDS011;3205;42.666;23.264;2022-08-07T12:15:58;8.02;;;7.22;;
6344;SDS011;3205;42.666;23.264;2022-08-07T12:18:29;7.25;;;6.65;;
6344;SDS011;3205;42.666;23.264;2022-08-07T12:21:00;9.10;;;7.03;;
6344;SDS011;3205;42.666;23.264;2022-08-07T12:23:37;7.85;;;7.00;;
6344;SDS011;3205;42.666;23.264;2022-08-07T12:26:08;6.72;;;6.13;;
6344;SDS011;3205;42.666;23.264;2022-08-07T12:28:39;7.10;;;6.47;;
6344;SDS011;3205;42.666;23.264;2022-08-07T12:31:10;6.18;;;5.68;;
6344;SDS011;3205;42.666;23.264;2022-08-07T12:33:38;6.97;;;6.10;;
6344;SDS011;3205;42.666;23.264;2022-08-07T12:36:06;6.25;;;5.75;;
6344;SDS011;3205;42.666;23.264;2022-08-07T12:38:34;8.38;;;6.35;;
6344;SDS011;3205;42.666;23.264;2022-08-07T12:41:05;6.38;;;5.88;;
6344;SDS011;3205;42.666;23.264;2022-08-07T12:43:32;7.35;;;6.70;;
6344;SDS011;3205;42.666;23.264;2022-08-07T12:46:03;8.25;;;6.88;;
6344;SDS011;3205;42.666;23.264;2022-08-07T12:48:35;7.60;;;6.88;;
6344;SDS011;3205;42.666;23.264;2022-08-07T12:51:08;7.88;;;6.75;;
6344;SDS011;3205;42.666;23.264;2022-08-07T12:53:53;5.80;;;5.30;;
6344;SDS011;3205;42.666;23.264;2022-08-07T12:56:25;6.03;;;5.50;;
6344;SDS011;3205;42.666;23.264;2022-08-07T12:58:54;10.88;;;5.95;;
6344;SDS011;3205;42.666;23.264;2022-08-07T13:01:27;6.72;;;6.13;;
6344;SDS011;3205;42.666;23.264;2022-08-07T13:03:57;6.57;;;6.03;;
6344;SDS011;3205;42.666;23.264;2022-08-07T13:06:29;7.60;;;5.97;;
6344;SDS011;3205;42.666;23.264;2022-08-07T13:09:05;6.47;;;5.88;;
6344;SDS011;3205;42.666;23.264;2022-08-07T13:11:40;6.80;;;6.30;;
6344;SDS011;3205;42.666;23.264;2022-08-07T13:14:14;6.45;;;5.95;;
6344;SDS011;3205;42.666;23.264;2022-08-07T13:16:46;6.80;;;6.20;;
6344;SDS011;3205;42.666;23.264;2022-08-07T13:19:17;6.22;;;5.80;;
6344;SDS011;3205;42.666;23.264;2022-08-07T13:21:48;6.53;;;5.90;;
6344;SDS011;3205;42.666;23.264;2022-08-07T13:24:19;5.90;;;5.15;;
6344;SDS011;3205;42.666;23.264;2022-08-07T13:26:48;5.75;;;5.25;;
6344;SDS011;3205;42.666;23.264;2022-08-07T13:29:18;6.28;;;5.65;;
6344;SDS011;3205;42.666;23.264;2022-08-07T13:31:48;6.63;;;5.47;;
6344;SDS011;3205;42.666;23.264;2022-08-07T13:34:20;6.50;;;5.90;;
6344;SDS011;3205;42.666;23.264;2022-08-07T13:36:50;6.40;;;5.63;;
6344;SDS011;3205;42.666;23.264;2022-08-07T13:39:25;5.97;;;5.47;;
6344;SDS011;3205;42.666;23.264;2022-08-07T13:41:55;7.15;;;6.45;;
6344;SDS011;3205;42.666;23.264;2022-08-07T13:44:22;6.35;;;5.90;;
6344;SDS011;3205;42.666;23.264;2022-08-07T13:46:51;8.63;;;5.50;;
6344;SDS011;3205;42.666;23.264;2022-08-07T13:49:18;6.72;;;6.10;;
6344;SDS011;3205;42.666;23.264;2022-08-07T13:51:45;6.68;;;6.15;;
6344;SDS011;3205;42.666;23.264;2022-08-07T13:54:13;6.55;;;5.95;;
6344;SDS011;3205;42.666;23.264;2022-08-07T13:56:42;7.30;;;5.80;;
6344;SDS011;3205;42.666;23.264;2022-08-07T13:59:11;7.00;;;6.40;;
6344;SDS011;3205;42.666;23.264;2022-08-07T14:01:43;6.10;;;5.60;;
6344;SDS011;3205;42.666;23.264;2022-08-07T14:04:13;6.00;;;5.40;;
6344;SDS011;3205;42.666;23.264;2022-08-07T14:06:40;6.22;;;5.78;;
6344;SDS011;3205;42.666;23.264;2022-08-07T14:09:09;6.25;;;5.82;;
6344;SDS011;3205;42.666;23.264;2022-08-07T14:11:43;7.05;;;5.60;;
6344;SDS011;3205;42.666;23.264;2022-08-07T14:14:11;6.90;;;5.35;;
6344;SDS011;3205;42.666;23.264;2022-08-07T14:16:40;5.82;;;5.38;;
6344;SDS011;3205;42.666;23.264;2022-08-07T14:19:10;6.38;;;5.78;;
6344;SDS011;3205;42.666;23.264;2022-08-07T14:21:38;7.20;;;6.22;;
6344;SDS011;3205;42.666;23.264;2022-08-07T14:24:06;5.68;;;5.28;;
6344;SDS011;3205;42.666;23.264;2022-08-07T14:26:36;6.60;;;6.00;;
6344;SDS011;3205;42.666;23.264;2022-08-07T14:29:04;7.13;;;6.50;;
6344;SDS011;3205;42.666;23.264;2022-08-07T14:31:34;7.25;;;6.55;;
6344;SDS011;3205;42.666;23.264;2022-08-07T14:34:00;10.77;;;6.03;;
6344;SDS011;3205;42.666;23.264;2022-08-07T14:36:28;7.25;;;6.65;;
6344;SDS011;3205;42.666;23.264;2022-08-07T14:38:58;7.03;;;6.40;;
6344;SDS011;3205;42.666;23.264;2022-08-07T14:41:28;8.57;;;6.57;;
6344;SDS011;3205;42.666;23.264;2022-08-07T14:43:56;7.35;;;6.10;;
6344;SDS011;3205;42.666;23.264;2022-08-07T14:46:25;7.07;;;6.47;;
6344;SDS011;3205;42.666;23.264;2022-08-07T14:48:52;6.90;;;6.40;;
6344;SDS011;3205;42.666;23.264;2022-08-07T14:51:22;9.93;;;6.72;;
6344;SDS011;3205;42.666;23.264;2022-08-07T14:53:52;7.10;;;6.40;;
6344;SDS011;3205;42.666;23.264;2022-08-07T14:56:19;6.82;;;6.28;;
6344;SDS011;3205;42.666;23.264;2022-08-07T14:58:47;7.38;;;6.78;;
6344;SDS011;3205;42.666;23.264;2022-08-07T15:01:14;7.35;;;6.68;;
6344;SDS011;3205;42.666;23.264;2022-08-07T15:03:43;7.45;;;6.22;;
6344;SDS011;3205;42.666;23.264;2022-08-07T15:06:11;7.50;;;6.63;;
6344;SDS011;3205;42.666;23.264;2022-08-07T15:08:38;7.43;;;6.18;;
6344;SDS011;3205;42.666;23.264;2022-08-07T15:11:08;9.77;;;6.28;;
6344;SDS011;3205;42.666;23.264;2022-08-07T15:13:37;7.55;;;6.85;;
6344;SDS011;3205;42.666;23.264;2022-08-07T15:16:06;8.80;;;6.25;;